McCook, NE

04:41 PM CDT em 24 de Julho de 2014 (GMT -0500)
McCook Municipal (KMCK) Elev 2579 ft | 40.20 °N, 100.59 °W | Change Station

Current weather conditions updated 48 minutes ago

Clear
Céu Limpo
102 °F
Aparente 103 °F
N
18
Vento Variável Vento de Sul
Gusts 26 mph

Amanhã prevê-se estar Mais Frio do que hoje.

Hoje
Máxima -- | Mínima -- °F
--% Possibilidade de Precip.
Ontem
Máxima -- | Mínima -- °F
Precip. -- pol
6:33 AM 9:04 PM
Quarto minguante, 4% visible
Pressão 29.77 pol
Visibilidade 10.0 milhas
Nuvens Céu Limpo
Índice de Calor 103 °F
Ponto de Orvalho 61 °F
Humidade 26%
Chuva 0.00 pol
Altura de Neve Não disponível
UV 9 em vez de 12
Pólen 7.20 em vez de 12
Qualidade do Ar Não disponível
Flu Activity Não disponível
METAR KMCK 242053Z AUTO 17016G23KT 10SM CLR 39/16 A2986 RMK AO2 SLP079 T03890161 56031

More Conditions Fewer Conditions

Pressão 29.77 pol
Visibilidade 10.0 milhas
Nuvens Céu Limpo
Índice de Calor 103 °F
Ponto de Orvalho 61 °F
Humidade 26%
Chuva 0.00 pol
Altura de Neve Não disponível
UV 9 em vez de 12
Pólen 7.20 em vez de 12
Qualidade do Ar Não disponível
Flu Activity Não disponível
METAR KMCK 242053Z AUTO 17016G23KT 10SM CLR 39/16 A2986 RMK AO2 SLP079 T03890161 56031

More Conditions Fewer Conditions

10-Day Weather Forecast

Almanac

Astronomia

Jul. 24, 2014 Nascer Pôr
Hora atual 06:33 CDT 21:04 CDT
Crepúsculo civil 06:01 CDT 21:35 CDT
Crepúsculo náutico 05:23 CDT 22:13 CDT
Crepúsculo astronómico 04:39 CDT 22:57 CDT
Lua 04:42 CDT 19:20 CDT
Comprimento da luz visível 15h 33m
Duração do Dia
14h 31m
Tomorrow will be 1m 45s shorter.
Quarto minguante, 4% of the Moon is Illuminated
Hoje
Quarto minguante
Jul 26
Nova
Ago 3
Quarto crescente
Ago 10
Lua cheia
Ago 17
Quarto minguante

Extremos de Hoje

situação na parte mais alta situação na parte mais baixa

Community

WunderPhotos

Upload Photos

1,737,139 fotografias inseridas!

WunderBlogs® & News

Nearby

Altura da Neve

Estação altura Altitude
Não há relatos de neve recente.

Actividade Sísmisca

Cidade Distância Mag. Hora & Data
Não há notícias de atividade sísmica recente perto de si.
Mínima magnitude apresentada é 2.5.

Temperaturas das Águas Costeiras

Local Temperatura
Não há estações a reportar dados

Estações Meteorológicas Próximas

Localização da Estação Temp. Índice de Calor Ponto de Orvalho Humidade Vento Precip. Elev Actualizado Tipo
McCook, NE 101.1 °F 106 °F 66 °F 32% SO  a  10.9 mph 0.00 pol / hr 2609 ft 4:35 PM CDT Normal
HADS RED WILLOW CREEK NEAR INDIANOLA NE, Indianola, NE 107 °F 99 °F - - Norte  a  - 0.00 pol / hr 2398 ft 3:30 PM CDT MADIS
Kastens Farms, Herndon, KS 102.4 °F 99 °F 48 °F 16% Sul  a  9.0 mph 0.00 pol / hr 2967 ft 4:12 PM CDT Normal
5 North, 1.5 West, Trenton, NE 101.0 °F 99 °F 52 °F 20% OSO  a  14.0 mph 0.00 pol / hr 2969 ft 4:38 PM CDT Normal

Show More Stations Show Fewer Stations